Time;durP1;ratioP1;P1;durP2;ratioP2;P2;SDS_P1;SDS_P2;PMS_P1;PMS_P2;Temp;Humidity;BMP_temperature;BMP_pressure;BME280_temperature;BME280_humidity;BME280_pressure;Samples;Min_cycle;Max_cycle;Signal;HPM_P1;HPM_P2
2023/05/09 00:00:29;;;;;;;4.35;3.30;;;;;;;15.18;39.03;102064.47;5039170;27;96931;-73
2023/05/09 00:02:56;;;;;;;7.05;3.70;;;;;;;15.10;39.08;102062.06;5044098;27;98940;-72
2023/05/09 00:05:22;;;;;;;3.90;2.78;;;;;;;15.19;38.95;102067.09;5040075;27;99382;-72
2023/05/09 00:07:49;;;;;;;8.73;3.38;;;;;;;15.16;38.99;102065.41;5038116;27;97205;-73
2023/05/09 00:10:15;;;;;;;5.25;3.42;;;;;;;15.12;39.08;102065.56;5046639;27;96826;-72
2023/05/09 00:12:42;;;;;;;12.77;3.40;;;;;;;15.04;39.36;102064.94;5040603;27;98984;-73
2023/05/09 00:15:10;;;;;;;4.80;3.25;;;;;;;15.09;39.23;102071.00;5053012;27;100693;-72
2023/05/09 00:17:39;;;;;;;9.32;3.63;;;;;;;15.01;39.47;102068.59;5045809;27;96943;-72
2023/05/09 00:20:11;;;;;;;6.10;3.83;;;;;;;15.04;39.46;102064.94;5044791;27;98513;-73
2023/05/09 00:22:38;;;;;;;9.18;3.55;;;;;;;15.06;39.38;102069.31;5041152;27;98507;-73
2023/05/09 00:25:06;;;;;;;5.93;3.50;;;;;;;14.94;39.58;102069.72;5043806;27;98790;-72
2023/05/09 00:27:33;;;;;;;4.15;3.17;;;;;;;14.95;39.54;102073.25;5037453;27;96987;-72
2023/05/09 00:29:59;;;;;;;4.63;2.95;;;;;;;14.88;39.60;102061.06;5045368;27;97344;-73
2023/05/09 00:32:27;;;;;;;6.07;3.40;;;;;;;15.02;39.28;102072.13;5044817;27;98889;-73
2023/05/09 00:34:55;;;;;;;6.85;3.30;;;;;;;14.84;39.40;102072.69;5039786;27;99879;-72
2023/05/09 00:37:21;;;;;;;4.93;3.30;;;;;;;14.58;39.82;102077.06;5043482;27;96972;-72
2023/05/09 00:39:48;;;;;;;4.30;2.88;;;;;;;14.75;39.74;102077.44;5042868;27;99349;-72
2023/05/09 00:42:15;;;;;;;5.63;3.30;;;;;;;14.56;39.98;102078.91;5038431;27;98246;-74
2023/05/09 00:44:41;;;;;;;4.80;3.38;;;;;;;14.52;40.08;102081.69;5051810;27;98221;-73
2023/05/09 00:47:08;;;;;;;7.07;3.15;;;;;;;14.85;39.33;102077.09;5042086;27;98648;-73
2023/05/09 00:49:34;;;;;;;9.07;3.30;;;;;;;14.83;39.16;102076.31;5049394;27;98275;-72
2023/05/09 00:52:03;;;;;;;9.25;4.05;;;;;;;14.77;39.33;102065.88;5040319;27;101793;-71
2023/05/09 00:54:30;;;;;;;8.68;3.03;;;;;;;14.84;38.89;102072.69;5041811;27;99488;-71
2023/05/09 00:56:56;;;;;;;6.18;2.85;;;;;;;14.88;39.01;102059.28;5039061;27;97730;-71
2023/05/09 00:59:23;;;;;;;6.72;3.20;;;;;;;14.77;39.34;102071.19;5041428;27;97126;-72
2023/05/09 01:01:50;;;;;;;3.78;2.72;;;;;;;14.62;39.35;102051.25;5038955;27;97800;-72
2023/05/09 01:04:17;;;;;;;4.30;2.92;;;;;;;14.82;38.96;102048.84;5044491;27;97564;-72
2023/05/09 01:06:52;;;;;;;5.82;2.92;;;;;;;14.67;39.19;102055.50;5039777;27;96869;-71
2023/05/09 01:09:29;;;;;;;5.72;3.15;;;;;;;14.66;38.98;102050.22;5041062;27;96815;-72
2023/05/09 01:15:24;;;;;;;4.00;2.65;;;;;;;14.60;39.50;102038.00;5035059;27;98699;-72
2023/05/09 01:17:57;;;;;;;7.40;2.60;;;;;;;14.58;39.32;102033.63;5045332;27;96986;-72
2023/05/09 01:20:32;;;;;;;4.43;3.05;;;;;;;14.56;39.33;102041.69;5032734;27;98488;-71
2023/05/09 01:23:11;;;;;;;3.20;2.88;;;;;;;14.46;39.32;102049.97;5038904;27;102853;-72
2023/05/09 01:25:58;;;;;;;4.13;3.00;;;;;;;14.52;39.26;102045.34;5043006;27;99255;-73
2023/05/09 01:28:37;;;;;;;5.93;2.88;;;;;;;14.62;39.04;102038.81;5037345;27;97621;-72
2023/05/09 01:31:08;;;;;;;7.93;3.08;;;;;;;14.66;38.96;102043.13;5041949;27;97077;-77
2023/05/09 01:33:40;;;;;;;8.00;3.00;;;;;;;14.66;38.78;102037.78;5040665;27;99737;-78
2023/05/09 01:36:15;;;;;;;7.90;3.33;;;;;;;14.57;38.86;102040.72;5043675;27;99146;-77
2023/05/09 01:38:43;;;;;;;5.53;2.80;;;;;;;14.43;39.03;102044.78;5043624;27;96851;-78
2023/05/09 01:41:12;;;;;;;5.20;3.05;;;;;;;14.45;39.05;102035.81;5047166;27;97145;-77
2023/05/09 01:43:40;;;;;;;6.65;3.15;;;;;;;14.53;39.03;102036.44;5046038;27;99230;-78
2023/05/09 01:46:09;;;;;;;11.25;3.05;;;;;;;14.40;39.12;102034.22;5037953;27;99917;-78
2023/05/09 01:48:37;;;;;;;4.32;2.50;;;;;;;14.31;38.96;102030.88;5038306;27;96834;-78
2023/05/09 01:51:05;;;;;;;8.15;2.80;;;;;;;14.29;39.08;102018.56;5032097;27;96923;-78
2023/05/09 01:53:33;;;;;;;3.90;2.78;;;;;;;14.30;38.97;102028.28;5037745;27;102792;-79
2023/05/09 01:56:01;;;;;;;5.28;2.60;;;;;;;14.30;38.73;102031.81;5041277;27;98837;-79
2023/05/09 01:58:28;;;;;;;5.95;2.63;;;;;;;14.43;38.37;102023.50;5040962;27;97375;-78
2023/05/09 02:00:55;;;;;;;5.45;2.60;;;;;;;14.19;38.33;102033.91;5040025;27;98636;-77
2023/05/09 02:03:24;;;;;;;4.70;2.88;;;;;;;14.30;38.34;102034.47;5039973;27;99030;-78
2023/05/09 02:05:52;;;;;;;5.15;2.72;;;;;;;14.36;38.16;102028.97;5039486;27;98622;-77
2023/05/09 02:08:20;;;;;;;3.53;2.17;;;;;;;14.22;37.98;102038.28;5035235;27;96894;-78
2023/05/09 02:10:48;;;;;;;4.97;2.03;;;;;;;14.31;38.03;102028.22;5039289;27;96917;-79
2023/05/09 02:13:15;;;;;;;4.13;2.38;;;;;;;14.33;37.66;102025.53;5043417;27;97753;-80
2023/05/09 02:15:42;;;;;;;8.07;2.67;;;;;;;14.39;37.27;102028.03;5039056;27;100283;-78
2023/05/09 02:18:08;;;;;;;3.28;2.53;;;;;;;14.23;37.76;102037.38;5044379;27;96895;-78
2023/05/09 02:20:36;;;;;;;2.63;1.88;;;;;;;14.39;37.17;102028.03;5038972;27;97038;-77
2023/05/09 02:23:03;;;;;;;3.33;2.03;;;;;;;14.22;37.24;102027.66;5037103;27;98374;-77
2023/05/09 02:25:30;;;;;;;4.60;1.88;;;;;;;14.29;37.40;102021.22;5039411;27;99128;-77
2023/05/09 02:27:58;;;;;;;3.65;2.45;;;;;;;14.26;37.12;102027.50;5037847;27;97966;-77
2023/05/09 02:30:26;;;;;;;2.85;2.20;;;;;;;14.20;36.91;102026.81;5048747;27;96892;-78
2023/05/09 02:32:57;;;;;;;4.05;2.13;;;;;;;14.23;36.73;102030.25;5034573;27;99197;-78
2023/05/09 02:35:26;;;;;;;6.18;2.30;;;;;;;14.17;37.15;102029.56;5036969;27;99273;-77
2023/05/09 02:37:54;;;;;;;3.67;2.47;;;;;;;14.16;36.96;102041.13;5038665;27;96944;-78
2023/05/09 02:40:22;;;;;;;11.88;2.78;;;;;;;14.17;37.02;102037.56;5043255;27;96925;-78
2023/05/09 02:42:48;;;;;;;5.47;2.10;;;;;;;14.16;36.91;102025.19;5034895;27;99383;-79
2023/05/09 02:45:15;;;;;;;5.63;2.30;;;;;;;14.09;36.57;102036.91;5040530;27;99459;-79
2023/05/09 02:47:41;;;;;;;3.63;2.45;;;;;;;14.10;36.82;102034.22;5041759;27;97781;-77
2023/05/09 02:50:08;;;;;;;5.43;2.08;;;;;;;14.05;36.79;102033.44;5039366;27;98140;-78
2023/05/09 02:52:34;;;;;;;4.65;2.38;;;;;;;14.09;36.70;102018.31;5035872;27;98958;-79
2023/05/09 02:55:02;;;;;;;8.38;2.30;;;;;;;14.17;36.64;102024.25;5031432;27;101368;-78
2023/05/09 02:57:29;;;;;;;4.78;2.35;;;;;;;14.21;36.60;102029.44;5036743;27;97163;-78
2023/05/09 02:59:56;;;;;;;9.50;2.28;;;;;;;14.27;36.48;102036.34;5036633;27;98677;-77
2023/05/09 03:02:23;;;;;;;6.45;2.63;;;;;;;13.92;36.83;102029.41;5044609;27;99343;-77
2023/05/09 03:04:49;;;;;;;4.35;2.00;;;;;;;13.91;37.09;102025.88;5041994;27;98659;-78
2023/05/09 03:07:16;;;;;;;3.65;2.22;;;;;;;14.05;36.64;102027.25;5045777;27;97131;-78
2023/05/09 03:09:42;;;;;;;4.15;2.75;;;;;;;14.15;36.74;102015.44;5043583;27;96896;-78
2023/05/09 03:12:10;;;;;;;7.55;2.55;;;;;;;14.21;36.40;102023.25;5041207;27;100915;-77
2023/05/09 03:14:37;;;;;;;3.33;2.15;;;;;;;13.98;36.56;102022.13;5039425;27;98838;-77
2023/05/09 03:17:03;;;;;;;6.97;2.45;;;;;;;14.05;36.71;102016.63;5043780;27;99931;-77
2023/05/09 03:19:30;;;;;;;4.60;2.03;;;;;;;14.19;36.32;102017.09;5047386;27;97022;-77
2023/05/09 03:21:56;;;;;;;3.58;2.42;;;;;;;14.16;36.62;102017.19;5041110;27;98319;-77
2023/05/09 03:24:23;;;;;;;3.53;2.25;;;;;;;13.92;36.90;102018.78;5038877;27;99293;-77
2023/05/09 03:26:49;;;;;;;4.38;2.60;;;;;;;13.94;36.81;102015.19;5036226;27;96694;-76
2023/05/09 03:29:17;;;;;;;7.57;2.47;;;;;;;13.73;37.26;102015.78;5040167;27;99754;-77
2023/05/09 03:31:43;;;;;;;6.03;2.42;;;;;;;13.91;37.28;102017.06;5042796;27;98420;-78
2023/05/09 03:34:13;;;;;;;8.10;2.30;;;;;;;13.88;37.12;102009.16;5042687;27;98870;-80
2023/05/09 03:36:40;;;;;;;5.47;2.17;;;;;;;13.98;37.00;102009.78;5042747;27;96734;-78
2023/05/09 03:39:07;;;;;;;6.95;2.00;;;;;;;13.90;37.36;102010.88;5040204;27;99062;-79
2023/05/09 03:41:34;;;;;;;3.78;2.17;;;;;;;13.96;37.19;102007.16;5041178;27;98325;-77
2023/05/09 03:44:01;;;;;;;4.15;2.13;;;;;;;14.01;37.15;101999.91;5042991;27;100057;-78
2023/05/09 03:46:29;;;;;;;8.80;2.60;;;;;;;13.98;37.31;102009.78;5044195;27;97635;-78
2023/05/09 03:48:55;;;;;;;5.28;2.55;;;;;;;14.14;37.04;102011.91;5042682;27;96908;-78
2023/05/09 03:51:22;;;;;;;3.95;2.10;;;;;;;14.02;37.25;102001.66;5039567;27;98953;-78
2023/05/09 03:53:48;;;;;;;5.72;2.42;;;;;;;13.98;37.67;102015.09;5040946;27;97937;-78
2023/05/09 03:56:15;;;;;;;4.40;2.60;;;;;;;13.95;37.55;102003.63;5041166;27;97096;-78
2023/05/09 03:58:41;;;;;;;4.85;2.45;;;;;;;13.93;37.73;102001.94;5041731;27;96908;-77
2023/05/09 04:01:07;;;;;;;5.47;2.50;;;;;;;13.89;37.89;101998.50;5040016;27;101844;-77
2023/05/09 04:03:36;;;;;;;3.47;2.70;;;;;;;14.08;37.56;101996.16;5042231;27;98843;-78
2023/05/09 04:06:03;;;;;;;8.07;2.83;;;;;;;13.94;37.67;101999.22;5042626;27;96756;-77
2023/05/09 04:08:30;;;;;;;4.28;2.60;;;;;;;14.12;37.73;101997.81;5037346;27;98819;-78
2023/05/09 04:10:56;;;;;;;7.35;2.30;;;;;;;14.05;37.68;101998.03;5036456;27;98367;-77
2023/05/09 04:13:23;;;;;;;4.07;2.42;;;;;;;13.98;38.00;101999.16;5041472;27;98885;-78
2023/05/09 04:15:49;;;;;;;5.32;2.63;;;;;;;13.96;37.92;101996.53;5043178;27;97846;-78
2023/05/09 04:18:16;;;;;;;4.07;2.75;;;;;;;13.89;38.22;102001.16;5042339;27;98291;-79
2023/05/09 04:20:43;;;;;;;4.70;2.65;;;;;;;13.90;38.15;102002.91;5041005;27;98489;-80
2023/05/09 04:23:10;;;;;;;5.90;3.15;;;;;;;13.78;38.52;102007.72;5045908;27;99155;-79
2023/05/09 04:25:39;;;;;;;4.45;2.63;;;;;;;13.88;38.36;102003.84;5043571;27;97138;-78
2023/05/09 04:28:05;;;;;;;4.88;2.72;;;;;;;13.87;38.33;102007.41;5047458;27;96832;-78
2023/05/09 04:30:32;;;;;;;5.43;2.90;;;;;;;13.98;38.19;102000.88;5040631;27;99027;-79
2023/05/09 04:32:58;;;;;;;12.25;2.58;;;;;;;14.08;38.02;102001.47;5048418;27;98864;-77
2023/05/09 04:35:25;;;;;;;7.07;3.15;;;;;;;14.16;37.81;102001.25;5045859;27;97299;-80
2023/05/09 04:37:53;;;;;;;4.18;3.25;;;;;;;14.28;37.79;102000.88;5043471;27;97684;-79
2023/05/09 04:40:20;;;;;;;7.90;3.25;;;;;;;14.47;37.51;102004.72;5039108;27;97723;-80
2023/05/09 04:42:46;;;;;;;7.68;2.95;;;;;;;14.60;37.17;101998.09;5041869;27;101492;-80
2023/05/09 04:45:17;;;;;;;7.78;3.60;;;;;;;14.59;36.96;101999.00;5044030;27;96882;-77
2023/05/09 04:47:43;;;;;;;8.35;2.95;;;;;;;14.36;37.37;102004.16;5043089;27;98763;-80
2023/05/09 04:50:10;;;;;;;5.88;3.20;;;;;;;14.41;37.62;101996.94;5038373;27;98155;-77
2023/05/09 04:52:37;;;;;;;6.40;3.63;;;;;;;14.48;37.81;102003.81;5040680;27;99767;-78
2023/05/09 04:55:05;;;;;;;6.82;3.13;;;;;;;14.62;37.27;102000.72;5034748;27;97168;-78
2023/05/09 04:57:32;;;;;;;9.13;2.95;;;;;;;14.39;37.49;101998.78;5032303;27;96900;-79
2023/05/09 04:59:58;;;;;;;6.30;2.92;;;;;;;14.44;37.65;101999.50;5043260;27;101453;-78
2023/05/09 05:02:25;;;;;;;5.32;3.10;;;;;;;14.54;37.51;101992.97;5038304;27;99229;-79
2023/05/09 05:04:51;;;;;;;4.68;2.78;;;;;;;14.67;37.27;101986.34;5040864;27;97443;-77
2023/05/09 05:07:18;;;;;;;7.85;3.28;;;;;;;14.66;36.99;101989.03;5046140;27;96902;-79
2023/05/09 05:09:44;;;;;;;6.00;3.03;;;;;;;14.80;37.17;101991.25;5044983;27;101081;-77
2023/05/09 05:12:12;;;;;;;6.75;3.33;;;;;;;15.06;36.66;101985.91;5045227;27;98985;-80
2023/05/09 05:14:39;;;;;;;7.25;3.20;;;;;;;15.17;36.58;101989.06;5045876;27;96794;-79
2023/05/09 05:17:05;;;;;;;4.63;3.30;;;;;;;14.95;36.59;101988.06;5049648;27;97775;-79
2023/05/09 05:19:32;;;;;;;7.78;2.72;;;;;;;14.78;37.04;101983.31;5052281;27;98236;-80
2023/05/09 05:21:59;;;;;;;11.73;3.35;;;;;;;14.41;37.55;101977.47;5037692;27;98476;-79
2023/05/09 05:24:26;;;;;;;7.10;2.78;;;;;;;14.72;37.49;101987.03;5040361;27;97716;-79
2023/05/09 05:26:52;;;;;;;6.25;3.42;;;;;;;15.04;36.73;101987.75;5042552;27;96889;-78
2023/05/09 05:29:20;;;;;;;5.88;2.70;;;;;;;15.30;36.07;101974.41;5039744;27;98988;-78
2023/05/09 05:31:46;;;;;;;12.80;3.17;;;;;;;15.30;36.12;101977.06;5048335;27;102268;-80
2023/05/09 05:34:15;;;;;;;5.63;3.38;;;;;;;15.43;35.53;101977.47;5055169;27;96990;-78
2023/05/09 05:36:41;;;;;;;6.88;3.78;;;;;;;15.50;35.50;101981.66;5056943;27;96667;-79
2023/05/09 05:39:08;;;;;;;8.63;3.28;;;;;;;15.56;35.34;101972.66;5052098;27;98988;-78
2023/05/09 05:41:34;;;;;;;9.30;3.58;;;;;;;15.95;34.80;101977.31;5041923;27;98740;-78
2023/05/09 05:44:01;;;;;;;6.68;2.92;;;;;;;15.90;34.76;101976.63;5044662;27;98633;-77
2023/05/09 05:46:29;;;;;;;7.57;3.50;;;;;;;16.31;34.36;101968.81;5039848;27;98369;-78
2023/05/09 05:48:56;;;;;;;6.63;2.80;;;;;;;15.97;34.37;101961.28;5046372;27;98269;-79
2023/05/09 05:51:22;;;;;;;5.80;3.10;;;;;;;16.26;34.35;101960.13;5040123;27;101974;-80
2023/05/09 05:53:49;;;;;;;12.30;3.00;;;;;;;16.42;34.00;101966.56;5039335;27;96873;-78
2023/05/09 05:56:15;;;;;;;5.10;2.63;;;;;;;16.25;33.94;101953.06;5041969;27;100959;-77
2023/05/09 05:58:42;;;;;;;6.07;2.95;;;;;;;16.65;33.47;101945.19;5054207;27;99119;-78
2023/05/09 06:01:08;;;;;;;9.90;3.22;;;;;;;16.53;33.31;101948.34;5049752;27;98129;-79
2023/05/09 06:03:36;;;;;;;5.43;3.15;;;;;;;16.78;32.98;101942.88;5048551;27;98700;-81
2023/05/09 06:06:03;;;;;;;6.95;3.47;;;;;;;16.74;33.04;101935.91;5047913;27;97076;-80
2023/05/09 06:08:29;;;;;;;7.95;3.28;;;;;;;16.88;33.08;101943.34;5048185;27;101539;-81
2023/05/09 06:10:56;;;;;;;4.10;2.67;;;;;;;16.98;32.42;101931.34;5042894;27;98836;-79
2023/05/09 06:13:22;;;;;;;7.97;2.85;;;;;;;17.06;32.11;101938.09;5049850;27;96702;-80
2023/05/09 06:15:49;;;;;;;9.35;2.47;;;;;;;16.92;32.24;101932.50;5045909;27;96795;-79
2023/05/09 06:18:15;;;;;;;3.88;2.50;;;;;;;17.20;32.29;101931.28;5034795;27;99029;-79
2023/05/09 06:20:43;;;;;;;5.20;2.83;;;;;;;17.42;31.47;101924.03;5043309;27;97758;-78
2023/05/09 06:23:10;;;;;;;7.88;2.67;;;;;;;17.64;31.24;101922.16;5039939;27;97691;-78
2023/05/09 06:25:36;;;;;;;6.13;2.30;;;;;;;17.45;31.50;101922.09;5034753;27;97502;-79
2023/05/09 06:28:03;;;;;;;7.13;2.67;;;;;;;17.32;31.62;101920.06;5043999;27;98251;-78
2023/05/09 06:30:30;;;;;;;6.78;2.72;;;;;;;16.97;32.28;101913.59;5043416;27;99006;-79
2023/05/09 06:32:58;;;;;;;8.48;2.63;;;;;;;17.18;32.15;101903.78;5045315;27;97259;-77
2023/05/09 06:35:25;;;;;;;6.57;2.92;;;;;;;17.77;31.56;101901.94;5034787;27;96975;-77
2023/05/09 06:37:53;;;;;;;4.82;2.60;;;;;;;17.99;30.81;101898.22;5042255;27;100163;-77
2023/05/09 06:40:19;;;;;;;5.88;2.70;;;;;;;18.00;30.62;101899.94;5045167;27;97523;-79
2023/05/09 06:42:46;;;;;;;16.30;3.95;;;;;;;18.10;30.72;101893.22;5046557;27;96805;-78
2023/05/09 06:45:14;;;;;;;4.45;2.75;;;;;;;17.64;31.27;101899.91;5038311;27;96788;-78
2023/05/09 06:47:41;;;;;;;3.67;2.95;;;;;;;18.04;30.78;101888.19;5049361;27;98856;-78
2023/05/09 06:50:11;;;;;;;6.82;3.17;;;;;;;18.31;30.60;101885.00;5040005;27;98790;-78
2023/05/09 06:52:37;;;;;;;7.50;2.33;;;;;;;18.56;29.95;101875.78;5049687;27;98926;-78
2023/05/09 06:55:06;;;;;;;6.40;2.40;;;;;;;18.23;29.97;101887.22;5050655;27;96852;-79
2023/05/09 06:57:33;;;;;;;5.20;2.25;;;;;;;18.17;30.34;101890.19;5053321;27;99056;-78
2023/05/09 07:00:00;;;;;;;7.10;2.40;;;;;;;18.14;30.76;101882.31;5036881;27;98810;-79
2023/05/09 07:02:26;;;;;;;3.53;2.40;;;;;;;18.66;29.89;101875.22;5044841;27;96720;-78
2023/05/09 07:04:53;;;;;;;8.00;3.30;;;;;;;18.63;29.42;101867.38;5043967;27;97122;-78
2023/05/09 07:07:20;;;;;;;6.75;2.92;;;;;;;19.01;29.03;101875.22;5048543;27;99221;-78
2023/05/09 07:09:46;;;;;;;9.23;2.65;;;;;;;18.90;28.88;101872.25;5040127;27;99101;-78
2023/05/09 07:12:14;;;;;;;8.23;2.28;;;;;;;18.90;29.48;101864.22;5047232;27;96700;-78
2023/05/09 07:14:41;;;;;;;8.85;3.00;;;;;;;18.81;29.18;101852.16;5046137;27;96939;-79
2023/05/09 07:17:08;;;;;;;9.82;3.40;;;;;;;18.78;29.48;101852.31;5052596;27;100833;-78
2023/05/09 07:19:34;;;;;;;7.18;2.95;;;;;;;19.21;28.74;101844.69;5044973;27;98286;-79
2023/05/09 07:22:01;;;;;;;11.48;2.92;;;;;;;19.89;27.27;101843.53;5053680;27;96699;-78
2023/05/09 07:24:27;;;;;;;6.13;3.05;;;;;;;20.20;26.81;101835.47;5049137;27;96857;-77
2023/05/09 07:26:54;;;;;;;6.38;3.28;;;;;;;20.12;26.75;101835.06;5041608;27;99516;-76
2023/05/09 07:29:22;;;;;;;9.32;3.10;;;;;;;19.66;26.98;101830.59;5047625;27;101217;-78
2023/05/09 07:31:48;;;;;;;8.45;2.67;;;;;;;19.37;27.66;101829.47;5049473;27;97041;-79
2023/05/09 07:34:18;;;;;;;11.57;2.97;;;;;;;19.23;28.15;101822.19;5050005;27;96719;-78
2023/05/09 07:36:45;;;;;;;7.55;3.03;;;;;;;18.85;28.66;101823.41;5043691;27;98935;-78
2023/05/09 07:39:11;;;;;;;8.35;2.90;;;;;;;19.14;28.09;101821.84;5041144;27;101038;-79
2023/05/09 07:41:38;;;;;;;7.38;3.20;;;;;;;19.25;28.52;101814.94;5037647;27;96777;-79
2023/05/09 07:44:04;;;;;;;9.10;3.30;;;;;;;19.36;27.97;101812.53;5048936;27;96882;-77
2023/05/09 07:46:32;;;;;;;8.43;2.70;;;;;;;19.86;26.92;101808.88;5040117;27;101213;-78
2023/05/09 07:48:59;;;;;;;13.00;3.05;;;;;;;19.72;26.81;101808.78;5050493;27;98912;-79
2023/05/09 07:51:25;;;;;;;4.57;2.83;;;;;;;19.85;26.42;101807.13;5048843;27;96870;-79
2023/05/09 07:53:54;;;;;;;7.88;2.67;;;;;;;19.54;26.58;101801.78;5045717;27;97290;-79
2023/05/09 07:56:21;;;;;;;4.65;2.50;;;;;;;19.83;26.68;101801.84;5049563;27;98842;-79
2023/05/09 07:58:48;;;;;;;7.28;2.28;;;;;;;19.93;26.41;101801.34;5046534;27;101703;-78
2023/05/09 08:01:14;;;;;;;11.02;2.50;;;;;;;19.64;26.39;101792.25;5053595;27;97063;-78
2023/05/09 08:03:42;;;;;;;6.20;2.60;;;;;;;20.26;25.96;101792.19;5042172;27;96923;-78
2023/05/09 08:06:08;;;;;;;4.65;2.63;;;;;;;20.38;25.97;101787.94;5046016;27;101236;-79
2023/05/09 08:08:35;;;;;;;5.18;2.28;;;;;;;20.52;25.53;101787.09;5048510;27;101768;-78
2023/05/09 08:11:01;;;;;;;5.28;2.65;;;;;;;20.39;25.78;101786.09;5047391;27;96837;-78
2023/05/09 08:13:28;;;;;;;6.13;2.80;;;;;;;20.32;25.35;101780.22;5038334;27;97070;-78
2023/05/09 08:15:54;;;;;;;5.38;2.40;;;;;;;20.62;25.39;101785.56;5047358;27;100600;-79
2023/05/09 08:18:21;;;;;;;7.70;2.80;;;;;;;20.96;25.13;101779.84;5047426;27;98900;-79
2023/05/09 08:20:49;;;;;;;11.85;3.50;;;;;;;21.05;25.14;101781.97;5040650;27;97115;-78
2023/05/09 08:23:16;;;;;;;3.45;2.10;;;;;;;20.63;25.32;101781.94;5042609;27;97332;-80
2023/05/09 08:25:42;;;;;;;6.07;2.63;;;;;;;20.68;24.67;101778.00;5038086;27;99420;-79
2023/05/09 08:28:09;;;;;;;5.20;2.60;;;;;;;20.28;24.56;101776.81;5039398;27;99047;-78
2023/05/09 08:30:36;;;;;;;5.40;2.13;;;;;;;20.38;24.77;101770.94;5040229;27;97158;-79
2023/05/09 08:33:02;;;;;;;5.05;2.33;;;;;;;19.84;25.17;101766.03;5041783;27;98474;-79
2023/05/09 08:35:29;;;;;;;2.88;2.30;;;;;;;20.04;25.42;101767.56;5043104;27;101719;-80
2023/05/09 08:37:57;;;;;;;6.13;2.55;;;;;;;20.14;25.36;101759.84;5044719;27;98718;-79
2023/05/09 08:40:23;;;;;;;7.25;2.22;;;;;;;20.33;25.77;101768.56;5042293;27;96742;-79
2023/05/09 08:42:50;;;;;;;7.85;2.40;;;;;;;20.10;25.41;101771.69;5046516;27;97198;-79
2023/05/09 08:45:22;;;;;;;4.43;2.25;;;;;;;20.38;25.19;101757.53;5044478;27;99267;-79
2023/05/09 08:47:50;;;;;;;6.57;2.40;;;;;;;20.22;25.37;101766.47;5043521;27;99191;-80
2023/05/09 08:50:17;;;;;;;8.60;2.53;;;;;;;20.29;24.78;101762.47;5045561;27;97213;-78
2023/05/09 08:52:43;;;;;;;6.78;1.98;;;;;;;20.01;24.73;101753.47;5049940;27;96981;-79
2023/05/09 08:55:12;;;;;;;6.10;2.45;;;;;;;20.50;24.63;101749.59;5041892;27;101516;-79
2023/05/09 08:57:38;;;;;;;7.20;1.85;;;;;;;20.48;24.90;101743.44;5038670;27;98994;-79
2023/05/09 09:00:06;;;;;;;5.35;2.20;;;;;;;19.94;25.13;101752.97;5039423;27;96818;-79
2023/05/09 09:02:33;;;;;;;5.68;2.22;;;;;;;20.20;25.14;101746.06;5045089;27;96803;-78
2023/05/09 09:05:01;;;;;;;2.78;2.30;;;;;;;20.51;24.88;101747.78;5047451;27;98858;-80
2023/05/09 09:07:29;;;;;;;6.57;2.30;;;;;;;20.19;25.32;101736.28;5044013;27;99533;-79
2023/05/09 09:09:57;;;;;;;7.07;2.50;;;;;;;20.28;25.58;101744.63;5039279;27;97283;-78
2023/05/09 09:12:26;;;;;;;6.75;2.50;;;;;;;20.51;25.64;101737.91;5037388;27;96869;-78
2023/05/09 09:14:54;;;;;;;6.88;2.30;;;;;;;20.36;25.94;101738.81;5043648;27;97957;-79
2023/05/09 09:17:26;;;;;;;7.25;2.70;;;;;;;20.72;25.55;101729.47;5043494;27;98995;-79
2023/05/09 09:19:55;;;;;;;5.55;2.50;;;;;;;20.77;25.35;101725.53;5045591;27;96805;-78
2023/05/09 09:22:22;;;;;;;6.72;2.80;;;;;;;21.17;24.91;101726.59;5042892;27;97590;-79
2023/05/09 09:24:49;;;;;;;6.47;2.33;;;;;;;21.35;24.38;101721.84;5037552;27;98963;-80
2023/05/09 09:27:15;;;;;;;6.97;2.33;;;;;;;21.62;24.18;101722.72;5047396;27;99275;-78
2023/05/09 09:29:43;;;;;;;9.68;2.97;;;;;;;21.53;24.25;101720.63;5045638;27;97389;-79
2023/05/09 09:32:10;;;;;;;8.25;2.72;;;;;;;21.48;23.94;101712.88;5048020;27;96780;-79
2023/05/09 09:34:37;;;;;;;5.68;2.80;;;;;;;21.64;23.76;101719.94;5041633;27;99191;-79
2023/05/09 09:37:06;;;;;;;6.53;2.35;;;;;;;22.04;23.43;101712.78;5042440;27;101531;-79
2023/05/09 09:39:32;;;;;;;8.88;2.13;;;;;;;21.67;23.22;101715.22;5045569;27;96876;-79
2023/05/09 09:42:10;;;;;;;3.25;2.00;;;;;;;21.25;24.44;101699.22;5050613;27;96934;-80
2023/05/09 09:44:36;;;;;;;5.95;2.20;;;;;;;21.33;24.26;101705.81;5044017;27;98962;-79
2023/05/09 09:47:09;;;;;;;6.85;2.75;;;;;;;21.67;23.13;101695.53;5037310;27;99232;-79
2023/05/09 09:49:35;;;;;;;10.55;2.40;;;;;;;21.16;23.52;101694.44;5049176;27;96825;-79
2023/05/09 09:52:02;;;;;;;6.88;2.40;;;;;;;21.25;23.85;101692.03;5044899;27;97332;-79
2023/05/09 09:54:28;;;;;;;4.70;2.63;;;;;;;21.34;23.47;101685.16;5042291;27;99339;-79
2023/05/09 09:56:55;;;;;;;8.43;1.95;;;;;;;21.60;22.92;101691.50;5035116;27;98268;-82
2023/05/09 09:59:24;;;;;;;3.30;2.20;;;;;;;21.51;23.07;101676.00;5033647;27;97307;-78
2023/05/09 10:01:55;;;;;;;5.72;2.25;;;;;;;21.35;23.11;101678.84;5048979;27;97366;-78
2023/05/09 10:04:25;;;;;;;8.73;2.35;;;;;;;21.51;23.34;101678.69;5041270;27;98825;-79
2023/05/09 10:06:52;;;;;;;5.57;2.10;;;;;;;21.65;23.25;101670.56;5043832;27;98061;-79
2023/05/09 10:09:20;;;;;;;5.68;2.13;;;;;;;21.47;23.48;101668.13;5043837;27;96856;-79
2023/05/09 10:11:49;;;;;;;8.50;2.15;;;;;;;21.45;23.60;101666.53;5043944;27;97212;-79
2023/05/09 10:14:16;;;;;;;6.97;2.45;;;;;;;21.72;22.96;101662.00;5034672;27;98957;-80
2023/05/09 10:16:43;;;;;;;8.50;2.10;;;;;;;21.54;23.25;101656.97;5045368;27;98619;-78
2023/05/09 10:19:11;;;;;;;6.35;2.20;;;;;;;21.64;22.96;101658.09;5039109;27;97152;-80
2023/05/09 10:21:40;;;;;;;5.47;1.92;;;;;;;21.62;22.90;101647.44;5040594;27;96908;-79
2023/05/09 10:24:08;;;;;;;8.32;2.00;;;;;;;21.23;23.21;101648.25;5039338;27;97864;-79
2023/05/09 10:26:40;;;;;;;9.55;2.60;;;;;;;21.61;22.86;101643.00;5036114;27;97901;-78
2023/05/09 10:29:10;;;;;;;8.35;2.40;;;;;;;21.76;22.82;101639.28;5037335;27;97097;-79
2023/05/09 10:31:38;;;;;;;7.95;2.10;;;;;;;21.56;22.89;101639.78;5033684;27;97255;-78
2023/05/09 10:34:09;;;;;;;5.45;2.15;;;;;;;21.28;23.23;101640.75;5056118;27;99279;-78
2023/05/09 10:36:36;;;;;;;6.18;2.00;;;;;;;21.72;22.98;101643.16;5040882;27;97751;-78
2023/05/09 10:39:04;;;;;;;5.25;1.98;;;;;;;21.72;23.01;101643.16;5047609;27;97292;-79
2023/05/09 10:41:31;;;;;;;8.43;2.53;;;;;;;21.44;23.33;101630.72;5042891;27;97037;-79
2023/05/09 10:43:58;;;;;;;5.90;2.20;;;;;;;21.71;23.69;101621.75;5039945;27;99194;-78
2023/05/09 10:46:26;;;;;;;6.38;2.30;;;;;;;21.90;23.24;101627.59;5038237;27;98829;-79
2023/05/09 10:48:53;;;;;;;4.65;2.22;;;;;;;21.82;23.37;101638.88;5036803;27;97145;-79
2023/05/09 10:51:20;;;;;;;8.18;2.25;;;;;;;21.82;23.06;101620.03;5040477;27;97329;-78
2023/05/09 10:53:48;;;;;;;5.45;2.33;;;;;;;21.99;22.50;101620.75;5043853;27;99279;-78
2023/05/09 10:56:28;;;;;;;3.65;1.98;;;;;;;21.82;23.25;101625.41;5040761;27;100124;-78
2023/05/09 10:58:55;;;;;;;7.68;2.30;;;;;;;21.32;23.92;101617.22;5040633;27;97196;-79
2023/05/09 11:01:33;;;;;;;7.03;2.08;;;;;;;21.55;23.31;101623.72;5043677;27;96939;-79
2023/05/09 11:04:01;;;;;;;3.47;2.00;;;;;;;21.57;23.78;101605.69;5044353;27;98587;-80
2023/05/09 11:06:46;;;;;;;3.25;1.65;;;;;;;21.74;23.16;101600.88;5047473;27;98980;-79
2023/05/09 11:09:24;;;;;;;2.85;2.20;;;;;;;21.60;23.59;101603.63;5043123;27;96746;-78
2023/05/09 11:11:53;;;;;;;3.33;2.15;;;;;;;21.68;23.11;101598.59;5043983;27;99300;-79
2023/05/09 11:14:32;;;;;;;5.82;2.35;;;;;;;21.43;22.90;101595.84;5042828;27;99659;-80
2023/05/09 11:17:00;;;;;;;3.67;2.10;;;;;;;21.49;23.69;101595.44;5032703;27;98774;-80
2023/05/09 11:19:57;;;;;;;6.85;2.00;;;;;;;21.49;23.27;101592.75;5043386;27;97519;-79
2023/05/09 11:22:26;;;;;;;5.22;2.22;;;;;;;21.76;22.92;101572.03;5039720;27;96961;-79
2023/05/09 11:25:01;;;;;;;6.47;1.95;;;;;;;21.93;22.87;101562.78;5036083;27;99223;-79
2023/05/09 11:27:36;;;;;;;5.45;3.03;;;;;;;22.12;23.16;101565.94;5039852;27;99105;-79
2023/05/09 11:30:06;;;;;;;6.13;2.35;;;;;;;21.79;22.99;101558.34;5038002;27;97587;-79